Eagletown, OK (74734)

2:59 PM CDT on October 23, 2014 (GMT -0500)
Helms Sevier County | Change Station
CLOSE
Current Station
Airport
Location: De Queen,
Elevation: 354 ft
Nearby Weather Stations

Elev 354 ft 34.05 °N, 94.40 °W | Updated 6 minutes ago

Mostly Cloudy
Mostly Cloudy
68 °F
Feels Like 68 °F
N
5
Wind Variable Wind from WSW

Today
High -- | Low -- °F
--% Chance of Precip.
Yesterday
High -- | Low -- °F
Precip. -- in
7:29 AM 6:34 PM
Waning Crescent, 0% visible
Pressure 30.11 in
Visibility 10.0 miles
Clouds Clear
Dew Point 52 °F
Humidity 56%
Rainfall 0.00 in
Snow Depth Not available.
UV 5 out of 12
Pollen 3.70 out of 12
Air Quality Not available.
Flu Activity No Activity
METAR KDEQ 231953Z AUTO 24004KT 10SM CLR 20/11 A3012 RMK AO2 SLP196 T02000111

More Conditions Fewer Conditions

Pressure 30.11 in
Visibility 10.0 miles
Clouds Clear
Dew Point 52 °F
Humidity 56%
Rainfall 0.00 in
Snow Depth Not available.
UV 5 out of 12
Pollen 3.70 out of 12
Air Quality Not available.
Flu Activity No Activity
METAR KDEQ 231953Z AUTO 24004KT 10SM CLR 20/11 A3012 RMK AO2 SLP196 T02000111

More Conditions Fewer Conditions

Nowcast | as of 1:02 PM CDT on October 23, 2014

Scattered light rain showers continue to move across the arklatex from near Lufkin...to near Mansfield...to near El Dorado. Movement is to the east...northeast around 25 mph. Overall...rainfall amounts will remain quite light from a trace to a couple or few hundreths at most. This activity will taper off from west to east during the mid afternoon. Skies will begin to clear late...hopefully in time for the partial solar eclipse around 5 PM this afternoon.

×

10-Day Weather Forecast

Almanac

Astronomy

Oct. 23, 2014 Rise Set
Actual Time 7:29 AM CDT 6:34 PM CDT
Civil Twilight 7:04 AM CDT 7:00 PM CDT
Nautical Twilight 6:35 AM CDT 7:29 PM CDT
Astronomical Twilight 6:06 AM CDT 7:58 PM CDT
Moon 7:11 AM CDT 6:36 PM CDT
Length of Visible Light 11h 55m
Length of Day
11h 04m
Tomorrow will be 1m 58s shorter.
Waning Crescent, 0% of the Moon is Illuminated
Today
Waning Crescent
Oct 23
New
Oct 30
First Quarter
Nov 6
Full
Nov 14
Last Quarter

Today's Extremes

State Highs State Lows

Community

WunderPhotos

Upload Photos

1,764,350 photos uploaded!

WunderBlogs® & News

By Dr. Jeff Masters
Director of Meteorology, Weather Underground
By Kari Strenfel
Meteorologist, Weather Underground
By Christopher C. Burt
Weather Historian, Weather Underground
October 23, 2014
October 23, 2014
October 23, 2014

Nearby

Snow Depth

Station Depth Elevation
No new snow has been reported.

Earthquake Activity

City Distance Mag. Time & Date
Boley, Oklahoma 146 miles 3.5 3:34 PM CDT
2014-10-20
Minimum magnitude displayed is 2.5.

Coastal Water Temperatures

Place Temperature
No Stations Reporting

Nearby Weather Stations